Randolph, NY

5:13 PM EDT on May 27, 2015 (GMT -0400)
Parts Plus/Dan Backus Memorial Weather Station | | Change Station
CLOSE
Current Station
Personal Weather Station
Location: Jamestown, NY
Elevation: 1250 ft
Nearby Weather Stations

Elev 1250 ft 42.11 °N, 79.22 °W | Updated 49 seconds ago

Partly Cloudy
Partly Cloudy
80.1 °F
Feels Like 81 °F
N
10.0
Wind Variable Wind from North
Gusts 16.0 mph

Today
High -- | Low -- °F
--% Chance of Precip.
Yesterday
High -- | Low -- °F
Precip. -- in
5:45 AM 8:41 PM
Waxing Gibbous, 70% visible
Pressure 30.07 in
Visibility 10.0 miles
Clouds Few 4900 ft
Few 5500 ft
Scattered Clouds 7500 ft
Heat Index 81 °F
Dew Point 58 °F
Humidity 47%
Rainfall 0.00 in
Snow Depth Not available.
UV 5 out of 12
Pollen 7.60 out of 12
Air Quality Not available.
Flu Activity Widespread
METAR KJHW 272035Z 21010G17KT 10SM FEW049 FEW055 SCT075 24/14 A3007 RMK AO1

More Conditions Fewer Conditions

Pressure 30.07 in
Visibility 10.0 miles
Clouds Few 4900 ft
Few 5500 ft
Scattered Clouds 7500 ft
Heat Index 81 °F
Dew Point 58 °F
Humidity 47%
Rainfall 0.00 in
Snow Depth Not available.
UV 5 out of 12
Pollen 7.60 out of 12
Air Quality Not available.
Flu Activity Widespread
METAR KJHW 272035Z 21010G17KT 10SM FEW049 FEW055 SCT075 24/14 A3007 RMK AO1

More Conditions Fewer Conditions

10-Day Weather Forecast

Almanac

Astronomy

May. 27, 2015 Rise Set
Actual Time
Civil Twilight
Nautical Twilight
Astronomical Twilight
Moon
Length of Visible Light
Length of Day
Tomorrow will be .
, % of the Moon is Illuminated

Today's Extremes

State Highs State Lows

Community

WunderPhotos

Upload Photos

1,824,799 photos uploaded!

WunderBlogs® & News

Nearby

Air Quality

  Air Quality AQ Index Pollutant
Not available.

Snow Depth

Station Depth Elevation

Earthquake Activity

City Distance Mag. Time & Date
Minimum magnitude displayed is 2.5.

Coastal Water Temperatures

Place Temperature

Stations

Nearby Weather Stations

Station Location Temp. Windchill Dew Point Humidity Wind Precip. Elev Updated Type